Time;durP1;ratioP1;P1;durP2;ratioP2;P2;SDS_P1;SDS_P2;PMS_P1;PMS_P2;Temp;Humidity;BMP_temperature;BMP_pressure;BME280_temperature;BME280_humidity;BME280_pressure;Samples;Min_cycle;Max_cycle;Signal;HPM_P1;HPM_P2
2022/05/22 00:01:41;;;;;;;2.10;2.00;;;;;;;15.34;nan;98744.69;4997285;28;20042;-63
2022/05/22 00:04:09;;;;;;;4.88;2.03;;;;;;;15.24;nan;98734.72;4995828;28;20040;-64
2022/05/22 00:06:35;;;;;;;2.33;1.92;;;;;;;15.27;nan;98742.38;4992673;28;20026;-62
2022/05/22 00:09:01;;;;;;;4.10;2.60;;;;;;;15.18;nan;98743.56;4996075;28;20104;-62
2022/05/22 00:11:26;;;;;;;2.20;2.10;;;;;;;15.17;nan;98736.69;4996545;28;20029;-63
2022/05/22 00:13:52;;;;;;;2.40;2.30;;;;;;;15.11;nan;98731.75;4993744;28;20459;-62
2022/05/22 00:16:36;;;;;;;2.55;2.08;;;;;;;14.91;nan;98737.63;4993180;28;20025;-62
2022/05/22 00:19:07;;;;;;;3.65;2.05;;;;;;;14.73;nan;98734.81;4995943;28;20117;-62
2022/05/22 00:21:33;;;;;;;3.40;2.22;;;;;;;14.72;nan;98731.41;4997373;28;20034;-63
2022/05/22 00:23:58;;;;;;;2.33;2.10;;;;;;;14.63;nan;98731.72;4992600;28;20140;-62
2022/05/22 00:26:24;;;;;;;3.63;1.95;;;;;;;14.51;nan;98727.78;4992039;28;20567;-62
2022/05/22 00:28:50;;;;;;;2.13;1.95;;;;;;;14.41;nan;98733.31;4994945;28;20508;-64
2022/05/22 00:31:16;;;;;;;3.33;2.03;;;;;;;14.36;nan;98730.88;4997694;28;20029;-62
2022/05/22 00:33:41;;;;;;;2.33;2.20;;;;;;;14.30;nan;98725.06;4991939;28;20038;-62
2022/05/22 00:36:07;;;;;;;2.53;2.30;;;;;;;14.34;nan;98721.50;4992792;28;20392;-63
2022/05/22 00:38:32;;;;;;;2.28;2.08;;;;;;;14.26;nan;98732.03;4994365;28;20034;-62
2022/05/22 00:40:58;;;;;;;6.30;2.22;;;;;;;14.17;nan;98716.88;4995677;28;20468;-62
2022/05/22 00:43:51;;;;;;;1.77;1.67;;;;;;;14.22;nan;98730.44;4991269;28;20022;-62
2022/05/22 00:46:19;;;;;;;2.17;2.00;;;;;;;14.21;nan;98725.34;4991322;28;20088;-63
2022/05/22 00:48:48;;;;;;;2.42;2.30;;;;;;;14.18;nan;98721.97;4995901;28;20116;-61
2022/05/22 00:51:16;;;;;;;2.60;2.40;;;;;;;14.22;nan;98711.53;4994426;28;20034;-62
2022/05/22 00:53:49;;;;;;;3.42;1.98;;;;;;;14.33;nan;98715.50;4991061;28;20132;-62
2022/05/22 00:56:20;;;;;;;2.45;2.28;;;;;;;14.36;nan;98712.84;4996076;28;20074;-63
2022/05/22 00:58:50;;;;;;;2.10;1.88;;;;;;;14.37;nan;98696.47;4997049;28;20030;-62
2022/05/22 01:01:15;;;;;;;2.78;1.80;;;;;;;14.53;nan;98713.13;4992295;28;20041;-63
2022/05/22 01:03:41;;;;;;;2.22;2.08;;;;;;;14.60;nan;98718.91;4989593;28;20567;-62
2022/05/22 01:06:09;;;;;;;2.15;1.90;;;;;;;14.59;nan;98710.34;4996602;28;20121;-61
2022/05/22 01:08:37;;;;;;;2.92;2.03;;;;;;;14.74;nan;98719.28;4996730;28;20396;-62
2022/05/22 01:11:30;;;;;;;4.25;1.83;;;;;;;14.83;nan;98721.56;4990572;28;20037;-63
2022/05/22 01:14:01;;;;;;;3.17;2.10;;;;;;;14.87;nan;98719.69;4987302;28;20045;-63
2022/05/22 01:16:26;;;;;;;2.28;2.03;;;;;;;14.83;nan;98720.69;4996772;28;20064;-61
2022/05/22 01:18:54;;;;;;;1.77;1.67;;;;;;;14.75;nan;98725.28;4994470;28;20128;-61
2022/05/22 01:21:23;;;;;;;3.30;2.30;;;;;;;14.72;nan;98723.66;4991368;28;20428;-61
2022/05/22 01:23:50;;;;;;;1.90;1.80;;;;;;;14.68;nan;98728.97;4993040;28;20065;-61
2022/05/22 01:26:17;;;;;;;2.90;2.30;;;;;;;14.64;nan;98725.63;4994878;28;20453;-61
2022/05/22 01:28:42;;;;;;;2.10;2.00;;;;;;;14.58;nan;98716.38;4995102;28;20049;-61
2022/05/22 01:31:08;;;;;;;2.63;1.77;;;;;;;14.50;nan;98723.53;4988537;28;20070;-61
2022/05/22 01:33:36;;;;;;;1.88;1.63;;;;;;;14.47;nan;98715.06;4994048;28;20413;-61
2022/05/22 01:36:03;;;;;;;3.47;2.08;;;;;;;14.42;nan;98729.84;4996142;28;20030;-62
2022/05/22 01:38:29;;;;;;;1.88;1.73;;;;;;;14.31;nan;98719.00;4991860;28;20038;-61
2022/05/22 01:40:54;;;;;;;3.72;2.03;;;;;;;14.41;nan;98736.75;4989097;28;20543;-61
2022/05/22 01:43:20;;;;;;;2.65;2.15;;;;;;;14.33;nan;98730.13;4995801;28;20191;-61
2022/05/22 01:45:45;;;;;;;2.70;2.13;;;;;;;14.33;nan;98738.69;4994640;28;20025;-61
2022/05/22 01:48:11;;;;;;;2.38;2.22;;;;;;;14.35;nan;98739.50;4991056;28;20502;-62
2022/05/22 01:50:39;;;;;;;2.03;1.92;;;;;;;14.27;nan;98727.72;4989429;28;20041;-62
2022/05/22 01:53:05;;;;;;;2.67;2.25;;;;;;;14.22;nan;98725.28;4995626;28;20036;-62
2022/05/22 01:55:32;;;;;;;2.13;2.03;;;;;;;14.15;nan;98732.38;4994984;28;20064;-62
2022/05/22 01:57:57;;;;;;;2.28;2.08;;;;;;;14.13;nan;98725.59;4989889;28;20117;-62
2022/05/22 02:00:24;;;;;;;1.95;1.85;;;;;;;13.99;nan;98705.41;4988453;28;20417;-62
2022/05/22 02:02:50;;;;;;;2.38;1.67;;;;;;;14.03;nan;98730.19;4995788;28;20064;-61
2022/05/22 02:05:19;;;;;;;2.75;1.90;;;;;;;13.94;nan;98727.06;4994643;28;20473;-61
2022/05/22 02:10:29;;;;;;;2.10;1.90;;;;;;;13.79;nan;98728.34;4991665;28;20037;-61
2022/05/22 02:12:54;;;;;;;2.38;2.03;;;;;;;13.75;nan;98724.19;4995323;28;20034;-62
2022/05/22 02:15:20;;;;;;;2.47;2.28;;;;;;;13.70;nan;98719.19;4994652;28;20095;-63
2022/05/22 02:17:46;;;;;;;2.15;2.05;;;;;;;13.57;nan;98720.44;4988134;28;20042;-61
2022/05/22 02:20:12;;;;;;;3.90;2.00;;;;;;;13.62;nan;98715.97;4990805;28;20080;-61
2022/05/22 02:22:49;;;;;;;2.53;1.90;;;;;;;13.54;nan;98702.50;4995172;28;20062;-61
2022/05/22 02:25:18;;;;;;;3.35;1.92;;;;;;;13.51;nan;98704.31;4992080;28;20038;-61
2022/05/22 02:27:43;;;;;;;2.45;1.80;;;;;;;13.45;nan;98718.22;4989051;28;20068;-61
2022/05/22 02:30:13;;;;;;;2.78;1.58;;;;;;;13.36;nan;98704.78;4994421;28;20420;-61
2022/05/22 02:32:39;;;;;;;1.83;1.67;;;;;;;13.35;nan;98714.22;4995030;28;20042;-61
2022/05/22 02:35:07;;;;;;;1.88;1.77;;;;;;;13.33;nan;98713.41;4990302;28;20530;-61
2022/05/22 02:37:49;;;;;;;3.55;1.80;;;;;;;13.34;nan;98719.41;4988140;28;20082;-61
2022/05/22 02:40:17;;;;;;;2.20;2.03;;;;;;;13.31;nan;98722.94;4995504;28;20045;-61
2022/05/22 02:42:46;;;;;;;1.88;1.77;;;;;;;13.23;nan;98704.28;4995241;28;20049;-61
2022/05/22 02:45:13;;;;;;;1.85;1.75;;;;;;;13.38;nan;98716.72;4987999;28;20318;-61
2022/05/22 02:47:38;;;;;;;3.35;2.00;;;;;;;13.41;nan;98714.03;4991750;28;20034;-61
2022/05/22 02:50:06;;;;;;;2.05;1.88;;;;;;;13.35;nan;98716.81;4994978;28;20487;-61
2022/05/22 02:52:31;;;;;;;2.75;1.75;;;;;;;13.21;nan;98714.63;4994920;28;20331;-61
2022/05/22 02:54:57;;;;;;;3.83;1.45;;;;;;;13.13;nan;98715.72;4990235;28;20121;-62
2022/05/22 02:57:23;;;;;;;1.80;1.70;;;;;;;13.05;nan;98712.47;4991378;28;20443;-61
2022/05/22 02:59:49;;;;;;;1.92;1.80;;;;;;;12.97;nan;98709.28;4996524;28;20022;-61
2022/05/22 03:02:16;;;;;;;1.83;1.73;;;;;;;12.94;nan;98715.38;4993610;28;20056;-61
2022/05/22 03:04:42;;;;;;;3.97;2.30;;;;;;;12.96;nan;98705.84;4988456;28;20038;-61
2022/05/22 03:07:09;;;;;;;2.35;2.20;;;;;;;12.93;nan;98707.69;4991456;28;20034;-62
2022/05/22 03:09:39;;;;;;;2.95;1.92;;;;;;;12.95;nan;98706.72;4995216;28;20052;-63
2022/05/22 03:12:23;;;;;;;3.88;2.20;;;;;;;12.96;nan;98710.16;4991022;28;20035;-63
2022/05/22 03:14:52;;;;;;;2.50;1.75;;;;;;;13.06;nan;98715.03;4988845;28;20041;-63
2022/05/22 03:17:18;;;;;;;1.95;1.85;;;;;;;13.12;nan;98708.88;4993402;28;20034;-64
2022/05/22 03:19:44;;;;;;;1.75;1.65;;;;;;;13.16;nan;98700.19;4995926;28;20037;-63
2022/05/22 03:22:10;;;;;;;5.13;2.45;;;;;;;13.19;nan;98707.84;4989691;28;20044;-62
2022/05/22 03:24:37;;;;;;;1.80;1.70;;;;;;;13.17;nan;98704.44;4988010;28;20027;-63
2022/05/22 03:27:04;;;;;;;2.10;2.00;;;;;;;13.19;nan;98700.13;4994067;28;20161;-63
2022/05/22 03:29:30;;;;;;;3.95;1.90;;;;;;;13.21;nan;98703.47;4994664;28;20884;-63
2022/05/22 03:31:55;;;;;;;2.83;1.70;;;;;;;13.22;nan;98689.72;4989788;28;20037;-60
2022/05/22 03:34:21;;;;;;;1.75;1.65;;;;;;;13.37;nan;98697.00;4992696;28;20026;-61
2022/05/22 03:36:47;;;;;;;2.10;1.77;;;;;;;13.38;nan;98706.41;4997774;28;20034;-61
2022/05/22 03:39:13;;;;;;;2.28;1.77;;;;;;;13.40;nan;98709.81;4998564;28;20045;-62
2022/05/22 03:41:38;;;;;;;3.13;2.10;;;;;;;13.49;nan;98722.41;4993524;28;20033;-62
2022/05/22 03:44:05;;;;;;;3.08;1.65;;;;;;;13.43;nan;98720.00;4992224;28;20073;-62
2022/05/22 03:46:31;;;;;;;2.72;2.22;;;;;;;13.33;nan;98721.13;5013467;28;20491;-61
2022/05/22 03:48:57;;;;;;;1.95;1.67;;;;;;;13.32;nan;98718.63;4996237;28;20038;-61
2022/05/22 03:51:23;;;;;;;3.30;2.05;;;;;;;13.32;nan;98723.78;4991167;28;20601;-62
2022/05/22 03:53:48;;;;;;;2.20;1.83;;;;;;;13.34;nan;98730.56;4995250;28;20525;-61
2022/05/22 03:56:16;;;;;;;2.38;2.05;;;;;;;13.39;nan;98739.00;4998428;28;20062;-61
2022/05/22 03:58:42;;;;;;;2.40;2.20;;;;;;;13.40;nan;98739.84;4997452;28;20029;-61
2022/05/22 04:01:08;;;;;;;3.95;2.40;;;;;;;13.40;nan;98739.84;4997483;28;20464;-61
2022/05/22 04:03:36;;;;;;;2.08;1.67;;;;;;;13.49;nan;98735.28;4996488;28;20233;-61
2022/05/22 04:06:03;;;;;;;2.20;2.00;;;;;;;13.60;nan;98743.53;4996699;28;20046;-61
2022/05/22 04:08:30;;;;;;;1.92;1.83;;;;;;;13.59;nan;98749.56;4994688;28;20115;-62
2022/05/22 04:10:56;;;;;;;2.35;2.15;;;;;;;13.73;nan;98744.03;4991526;28;20546;-61
2022/05/22 04:13:22;;;;;;;2.00;1.88;;;;;;;13.78;nan;98738.72;4996834;28;20126;-61
2022/05/22 04:15:48;;;;;;;2.40;2.05;;;;;;;13.78;nan;98731.00;4997928;28;20123;-63
2022/05/22 04:18:14;;;;;;;2.35;2.17;;;;;;;14.03;nan;98744.81;4993154;28;20034;-63
2022/05/22 04:20:39;;;;;;;2.25;2.05;;;;;;;14.15;nan;98739.28;4991213;28;20480;-63
2022/05/22 04:25:54;;;;;;;3.00;2.07;;;;;;;14.57;nan;98740.50;4997660;28;20080;-61
2022/05/22 04:28:19;;;;;;;2.05;1.80;;;;;;;14.70;nan;98725.44;4992646;28;20071;-63
2022/05/22 04:30:45;;;;;;;2.50;2.35;;;;;;;15.00;nan;98733.88;4990859;28;20034;-63
2022/05/22 04:33:10;;;;;;;2.95;2.67;;;;;;;15.14;nan;98736.81;4996321;28;20034;-63
2022/05/22 04:35:37;;;;;;;2.65;2.00;;;;;;;15.30;nan;98742.25;4996692;28;20472;-62
2022/05/22 04:38:03;;;;;;;2.35;1.95;;;;;;;15.41;nan;98740.97;4990784;28;20036;-61
2022/05/22 04:40:28;;;;;;;4.18;2.00;;;;;;;15.68;nan;98738.28;4992710;28;20034;-61
2022/05/22 04:42:54;;;;;;;5.75;2.10;;;;;;;15.69;nan;98727.06;5004430;28;20026;-61
2022/05/22 04:45:19;;;;;;;4.53;1.75;;;;;;;15.90;nan;98739.16;4995517;28;20083;-63
2022/05/22 04:47:45;;;;;;;2.13;2.03;;;;;;;15.86;nan;98719.50;4990104;28;20041;-62
2022/05/22 04:50:13;;;;;;;3.70;2.42;;;;;;;16.06;nan;98732.50;4993280;28;20436;-63
2022/05/22 04:52:38;;;;;;;3.38;3.08;;;;;;;16.06;nan;98729.06;4997139;28;20124;-63
2022/05/22 04:55:05;;;;;;;2.33;1.90;;;;;;;16.36;nan;98733.84;4994395;28;20484;-63
2022/05/22 04:57:31;;;;;;;2.05;1.95;;;;;;;16.26;nan;98732.53;4991038;28;20053;-63
2022/05/22 04:59:56;;;;;;;3.08;1.90;;;;;;;16.43;nan;98735.28;4993593;28;20141;-62
2022/05/22 05:02:23;;;;;;;4.60;2.30;;;;;;;16.42;nan;98736.19;4997374;28;20061;-63
2022/05/22 05:04:52;;;;;;;3.00;2.80;;;;;;;16.45;nan;98737.81;4993674;28;20523;-61
2022/05/22 05:07:18;;;;;;;3.75;2.83;;;;;;;16.42;nan;98733.59;4990247;28;20042;-63
2022/05/22 05:09:45;;;;;;;4.03;2.10;;;;;;;16.29;nan;98722.09;4994334;28;20065;-62
2022/05/22 05:12:10;;;;;;;1.85;1.75;;;;;;;16.34;nan;98725.31;4996916;28;20039;-61
2022/05/22 05:14:37;;;;;;;2.40;1.70;;;;;;;16.18;nan;98723.41;5006714;28;20088;-63
2022/05/22 05:17:10;;;;;;;3.30;1.83;;;;;;;16.43;nan;98730.09;4988599;28;20038;-63
2022/05/22 05:19:35;;;;;;;3.03;2.15;;;;;;;16.53;nan;98734.91;4996513;28;20034;-64
2022/05/22 05:22:01;;;;;;;3.30;2.83;;;;;;;16.42;nan;98723.25;4996584;28;20041;-67
2022/05/22 05:24:26;;;;;;;2.55;2.33;;;;;;;16.51;nan;98727.19;4990844;28;20144;-63
2022/05/22 05:26:54;;;;;;;3.17;2.10;;;;;;;16.57;nan;98713.16;4989917;28;20073;-64
2022/05/22 05:29:20;;;;;;;2.67;2.47;;;;;;;16.52;nan;98713.34;4998031;28;20037;-61
2022/05/22 05:31:45;;;;;;;3.45;2.70;;;;;;;16.47;nan;98712.69;4997221;28;20379;-61
2022/05/22 05:34:11;;;;;;;2.53;2.17;;;;;;;16.42;nan;98714.66;4989543;28;20030;-61
2022/05/22 05:36:37;;;;;;;6.93;2.47;;;;;;;16.48;nan;98723.91;4991021;28;20060;-61
2022/05/22 05:39:03;;;;;;;3.30;2.28;;;;;;;16.70;nan;98719.53;4996118;28;20049;-61
2022/05/22 05:41:29;;;;;;;4.70;2.47;;;;;;;16.69;nan;98730.81;4994544;28;20042;-63
2022/05/22 05:43:54;;;;;;;2.42;2.25;;;;;;;16.67;nan;98717.94;4990635;28;20033;-62
2022/05/22 05:46:19;;;;;;;2.10;2.00;;;;;;;16.95;nan;98725.38;4991746;28;20133;-61
2022/05/22 05:48:45;;;;;;;4.10;2.60;;;;;;;17.20;nan;98728.56;4995191;28;20034;-61
2022/05/22 05:51:13;;;;;;;3.72;3.38;;;;;;;17.34;nan;98721.03;4994898;28;20113;-62
2022/05/22 05:53:38;;;;;;;2.78;2.55;;;;;;;17.38;nan;98723.47;4988322;28;20076;-63
2022/05/22 05:56:04;;;;;;;3.92;3.10;;;;;;;17.43;nan;98724.13;4992011;28;20029;-62
2022/05/22 05:58:30;;;;;;;4.32;3.03;;;;;;;17.55;nan;98728.75;4996403;28;20029;-62
2022/05/22 06:00:55;;;;;;;4.03;2.85;;;;;;;17.29;nan;98741.13;4992606;28;20106;-63
2022/05/22 06:03:21;;;;;;;2.97;2.60;;;;;;;17.20;nan;98728.56;4987886;28;20034;-64
2022/05/22 06:05:48;;;;;;;3.15;2.78;;;;;;;17.11;nan;98741.91;4993007;28;20030;-63
2022/05/22 06:08:13;;;;;;;3.90;2.95;;;;;;;17.09;nan;98737.72;4995373;28;20370;-61
2022/05/22 06:10:39;;;;;;;4.65;3.13;;;;;;;17.11;nan;98728.97;4991690;28;20486;-63
2022/05/22 06:13:05;;;;;;;3.22;2.90;;;;;;;16.86;nan;98723.16;4989636;28;20054;-61
2022/05/22 06:15:30;;;;;;;4.28;3.40;;;;;;;17.16;nan;98727.03;4994400;28;20029;-63
2022/05/22 06:17:56;;;;;;;4.30;2.92;;;;;;;17.29;nan;98733.34;4996577;28;20705;-63
2022/05/22 06:20:22;;;;;;;5.78;3.25;;;;;;;17.17;nan;98723.53;4990170;28;20559;-63
2022/05/22 06:22:48;;;;;;;5.90;3.17;;;;;;;17.09;nan;98720.44;4988668;28;20162;-61
2022/05/22 06:25:15;;;;;;;4.65;3.17;;;;;;;16.89;nan;98721.28;4994927;28;20030;-63
2022/05/22 06:27:43;;;;;;;3.70;2.70;;;;;;;17.05;nan;98739.63;4996304;28;20040;-61
2022/05/22 06:30:12;;;;;;;5.95;3.95;;;;;;;17.20;nan;98714.75;4990370;28;20434;-63
2022/05/22 06:32:39;;;;;;;4.38;3.13;;;;;;;17.42;nan;98718.09;5007642;28;20337;-62
2022/05/22 06:35:06;;;;;;;2.78;2.58;;;;;;;17.58;nan;98716.50;4998288;28;20276;-63
2022/05/22 06:37:32;;;;;;;5.45;3.60;;;;;;;17.70;nan;98709.91;4996585;28;20034;-62
2022/05/22 06:39:57;;;;;;;3.78;2.38;;;;;;;17.88;nan;98706.47;4991632;28;20038;-63
2022/05/22 06:42:29;;;;;;;5.20;2.60;;;;;;;18.09;nan;98695.06;4992499;28;20038;-62
2022/05/22 06:45:04;;;;;;;4.40;2.83;;;;;;;18.32;nan;98700.91;4996672;28;20034;-63
2022/05/22 06:47:30;;;;;;;3.35;2.55;;;;;;;18.19;nan;98692.88;4995065;28;20632;-63
2022/05/22 06:49:57;;;;;;;5.07;3.17;;;;;;;18.13;nan;98680.19;4989746;28;20041;-64
2022/05/22 06:52:24;;;;;;;2.88;2.67;;;;;;;18.23;nan;98687.44;4993388;28;20040;-63
2022/05/22 06:54:49;;;;;;;3.33;2.53;;;;;;;17.98;nan;98683.53;4997937;28;20026;-63
2022/05/22 06:57:18;;;;;;;7.35;3.30;;;;;;;18.14;nan;98687.06;4990498;28;20339;-63
2022/05/22 06:59:45;;;;;;;4.38;3.15;;;;;;;17.99;nan;98680.03;4990115;28;20454;-62
2022/05/22 07:02:11;;;;;;;3.15;2.72;;;;;;;18.06;nan;98676.22;4993814;28;20027;-62
2022/05/22 07:04:36;;;;;;;3.05;2.80;;;;;;;18.25;nan;98671.78;4996203;28;20411;-63
2022/05/22 07:07:02;;;;;;;5.03;3.15;;;;;;;18.48;nan;98671.50;4993983;28;20037;-63
2022/05/22 07:09:28;;;;;;;2.65;2.45;;;;;;;18.59;nan;98678.75;4992812;28;20049;-63
2022/05/22 07:11:59;;;;;;;3.30;3.00;;;;;;;18.58;nan;98671.91;4999725;28;20405;-63
2022/05/22 07:14:27;;;;;;;3.55;3.10;;;;;;;18.67;nan;98672.25;5000768;28;20092;-63
2022/05/22 07:16:53;;;;;;;6.60;2.85;;;;;;;18.51;nan;98665.28;4996074;28;20042;-62
2022/05/22 07:19:19;;;;;;;4.82;3.25;;;;;;;18.40;nan;98662.41;4993921;28;20064;-63
2022/05/22 07:21:45;;;;;;;3.42;3.22;;;;;;;18.51;nan;98671.34;4999968;28;20148;-63
2022/05/22 07:24:11;;;;;;;3.00;2.72;;;;;;;18.69;nan;98660.06;4997465;28;20042;-64
2022/05/22 07:26:37;;;;;;;6.72;3.58;;;;;;;18.76;nan;98644.97;4993418;28;20467;-64
2022/05/22 07:29:03;;;;;;;3.53;2.72;;;;;;;18.89;nan;98656.41;4991972;28;20042;-63
2022/05/22 07:31:29;;;;;;;3.88;2.90;;;;;;;18.74;nan;98652.03;4998520;28;20037;-63
2022/05/22 07:33:55;;;;;;;4.20;2.63;;;;;;;18.52;nan;98648.81;4997177;28;20026;-63
2022/05/22 07:36:21;;;;;;;5.45;3.67;;;;;;;18.33;nan;98656.66;4992717;28;20042;-63
2022/05/22 07:38:48;;;;;;;4.18;3.25;;;;;;;18.39;nan;98663.31;4994009;28;20041;-63
2022/05/22 07:41:13;;;;;;;5.95;3.08;;;;;;;18.36;nan;98663.47;4999338;28;20026;-62
2022/05/22 07:43:40;;;;;;;3.88;2.80;;;;;;;18.27;nan;98660.44;4997578;28;20503;-62
2022/05/22 07:46:06;;;;;;;3.22;2.53;;;;;;;18.32;nan;98652.41;4993923;28;20413;-62
2022/05/22 07:48:32;;;;;;;5.82;3.25;;;;;;;18.38;nan;98656.44;4994511;28;20125;-64
2022/05/22 07:51:02;;;;;;;4.47;3.08;;;;;;;18.39;nan;98647.75;4998364;28;20447;-63
2022/05/22 07:53:29;;;;;;;4.47;3.30;;;;;;;18.46;nan;98646.53;4997059;28;20109;-62
2022/05/22 07:55:54;;;;;;;3.70;2.90;;;;;;;18.63;nan;98641.34;4992988;28;20042;-62
2022/05/22 07:58:21;;;;;;;2.95;2.75;;;;;;;18.87;nan;98631.44;4994859;28;20060;-63
2022/05/22 08:00:49;;;;;;;4.40;3.08;;;;;;;19.11;nan;98630.97;4997665;28;20128;-62
2022/05/22 08:03:16;;;;;;;3.60;3.10;;;;;;;19.36;nan;98630.50;4994933;28;20173;-63
2022/05/22 08:05:42;;;;;;;4.18;3.78;;;;;;;19.13;nan;98618.75;4988602;28;20583;-63
2022/05/22 08:08:09;;;;;;;6.68;3.35;;;;;;;19.32;nan;98607.34;4995437;28;20037;-63
2022/05/22 08:10:36;;;;;;;4.38;3.17;;;;;;;19.41;nan;98620.69;4999022;28;20034;-63
2022/05/22 08:13:04;;;;;;;4.55;3.63;;;;;;;19.61;nan;98630.00;4993867;28;20037;-63
2022/05/22 08:15:30;;;;;;;3.42;3.08;;;;;;;19.55;nan;98614.75;4991218;28;20062;-63
2022/05/22 08:17:56;;;;;;;6.40;3.20;;;;;;;19.85;nan;98618.25;4995536;28;20081;-64
2022/05/22 08:20:22;;;;;;;5.68;2.88;;;;;;;20.02;nan;98620.72;4997131;28;20472;-63
2022/05/22 08:22:54;;;;;;;3.28;3.08;;;;;;;19.99;nan;98607.88;4992449;28;20105;-63
2022/05/22 08:25:20;;;;;;;4.88;3.17;;;;;;;19.86;nan;98608.69;4991217;28;20340;-63
2022/05/22 08:27:45;;;;;;;2.97;2.60;;;;;;;20.24;nan;98611.69;4996816;28;20097;-63
2022/05/22 08:30:14;;;;;;;5.15;3.25;;;;;;;20.74;nan;98612.16;4996234;28;20023;-62
2022/05/22 08:32:42;;;;;;;5.50;3.20;;;;;;;21.03;nan;98605.16;4990721;28;20127;-63
2022/05/22 08:35:11;;;;;;;3.70;3.03;;;;;;;20.77;nan;98595.47;4991766;28;20036;-63
2022/05/22 08:37:36;;;;;;;3.13;2.92;;;;;;;20.82;nan;98612.53;4997311;28;20580;-63
2022/05/22 08:40:04;;;;;;;3.35;2.97;;;;;;;21.15;nan;98608.78;4995371;28;20303;-62
2022/05/22 08:42:38;;;;;;;4.28;3.25;;;;;;;21.23;nan;98601.31;4990227;28;20563;-63
2022/05/22 08:45:15;;;;;;;4.75;2.83;;;;;;;21.62;nan;98592.75;4993154;28;20041;-62
2022/05/22 08:47:47;;;;;;;4.63;2.65;;;;;;;21.63;nan;98595.28;4996052;28;20052;-62
2022/05/22 08:50:13;;;;;;;4.43;2.97;;;;;;;21.92;nan;98584.69;4993402;28;20038;-63
2022/05/22 08:52:55;;;;;;;3.85;3.05;;;;;;;21.99;nan;98586.00;4990131;28;20554;-63
2022/05/22 08:55:26;;;;;;;4.18;3.13;;;;;;;22.06;nan;98577.69;4995880;28;20030;-63
2022/05/22 09:00:42;;;;;;;3.35;2.97;;;;;;;22.10;nan;98560.03;4990704;28;20061;-63
2022/05/22 09:03:20;;;;;;;3.35;2.85;;;;;;;22.06;nan;98558.56;4991991;28;20034;-63
2022/05/22 09:05:50;;;;;;;3.95;3.08;;;;;;;21.70;nan;98549.56;4997231;28;20030;-64
2022/05/22 09:08:35;;;;;;;4.80;3.33;;;;;;;21.47;nan;98550.25;4995378;28;20061;-63
2022/05/22 09:11:09;;;;;;;3.17;2.92;;;;;;;21.56;nan;98560.06;4991179;28;20236;-63
2022/05/22 09:13:52;;;;;;;3.15;2.88;;;;;;;21.64;nan;98549.94;4994033;28;20070;-62
2022/05/22 09:16:23;;;;;;;6.18;3.17;;;;;;;21.61;nan;98550.16;4995935;28;20145;-64
2022/05/22 09:18:57;;;;;;;3.30;2.92;;;;;;;21.74;nan;98543.22;4993587;28;20045;-63
2022/05/22 09:21:41;;;;;;;3.73;2.77;;;;;;;21.62;nan;98545.78;4989847;28;20042;-64
2022/05/22 09:24:45;;;;;;;3.17;2.90;;;;;;;21.96;nan;98540.06;4996564;28;20049;-63
2022/05/22 09:27:41;;;;;;;4.75;2.92;;;;;;;21.80;nan;98535.00;4993814;28;20599;-64
2022/05/22 09:30:30;;;;;;;3.65;2.95;;;;;;;21.85;nan;98534.69;4990963;28;20121;-63
2022/05/22 09:33:11;;;;;;;3.67;2.58;;;;;;;21.96;nan;98539.22;4995842;28;20030;-64
2022/05/22 09:35:50;;;;;;;4.50;2.67;;;;;;;22.11;nan;98528.56;4996188;28;20032;-64
2022/05/22 09:38:30;;;;;;;4.72;2.97;;;;;;;21.74;nan;98530.16;4989968;28;20112;-64
2022/05/22 09:41:09;;;;;;;3.00;2.63;;;;;;;21.76;nan;98517.84;4992653;28;20124;-62
2022/05/22 09:44:36;;;;;;;3.35;3.10;;;;;;;22.19;nan;98528.88;4994681;28;20060;-62
2022/05/22 09:47:29;;;;;;;3.60;2.42;;;;;;;22.62;nan;98521.56;4885991;29;20049;-64
2022/05/22 09:50:09;;;;;;;3.45;2.40;;;;;;;22.86;nan;98528.66;4885047;29;20044;-63
2022/05/22 09:52:50;;;;;;;3.08;2.30;;;;;;;22.54;nan;98523.03;4888837;29;20045;-63
2022/05/22 09:55:39;;;;;;;2.83;2.05;;;;;;;22.16;nan;98526.50;4890615;29;20274;-63
2022/05/22 09:58:22;;;;;;;5.03;3.13;;;;;;;22.33;nan;98515.72;4884492;29;20083;-63
2022/05/22 10:00:51;;;;;;;2.83;2.47;;;;;;;22.31;nan;98514.19;4889895;29;20052;-62
2022/05/22 10:03:37;;;;;;;2.42;2.17;;;;;;;21.63;nan;98490.91;4889238;29;20036;-63
2022/05/22 10:06:16;;;;;;;4.07;3.55;;;;;;;22.12;nan;98495.47;4885379;29;20082;-62
2022/05/22 10:08:49;;;;;;;2.65;2.25;;;;;;;21.61;nan;98489.31;4886751;29;20248;-63
2022/05/22 10:11:45;;;;;;;2.80;2.47;;;;;;;21.73;nan;98485.88;4891777;29;20571;-62
2022/05/22 10:14:37;;;;;;;2.38;2.25;;;;;;;21.59;nan;98473.78;4887775;29;20088;-63
2022/05/22 10:17:23;;;;;;;2.50;2.30;;;;;;;22.01;nan;98479.69;4885961;29;20048;-63
2022/05/22 10:20:18;;;;;;;3.05;2.85;;;;;;;22.12;nan;98466.72;4897748;29;20098;-64
2022/05/22 10:22:58;;;;;;;2.15;2.05;;;;;;;22.56;nan;98471.50;4941173;28;20190;-63
2022/05/22 10:26:01;;;;;;;2.55;1.80;;;;;;;22.25;nan;98475.41;4989596;28;20058;-63
2022/05/22 10:28:36;;;;;;;1.90;1.80;;;;;;;22.24;nan;98477.16;4992113;28;20057;-63
2022/05/22 10:31:08;;;;;;;3.58;2.08;;;;;;;22.46;nan;98476.53;4994979;28;20080;-64
2022/05/22 10:33:58;;;;;;;4.55;2.50;;;;;;;22.57;nan;98481.03;4991319;28;20030;-65
2022/05/22 10:36:41;;;;;;;3.30;2.97;;;;;;;22.68;nan;98447.94;4988945;28;20049;-63
2022/05/22 10:39:14;;;;;;;1.70;1.58;;;;;;;22.61;nan;98465.03;4995910;28;20058;-64
2022/05/22 10:44:47;;;;;;;;;;;;;;;22.74;nan;98447.53;4988288;28;20511;-63
2022/05/22 10:47:13;;;;;;;3.00;2.50;;;;;;;22.22;nan;98437.28;4990843;28;20299;-62
2022/05/22 10:49:44;;;;;;;4.80;3.80;;;;;;;22.56;nan;98443.59;4994907;28;20049;-63
2022/05/22 10:52:14;;;;;;;3.70;2.40;;;;;;;22.49;nan;98434.50;4992029;28;20061;-63
2022/05/22 10:54:50;;;;;;;2.28;2.08;;;;;;;22.91;nan;98430.66;4988587;28;20503;-62
2022/05/22 10:57:22;;;;;;;2.08;1.80;;;;;;;22.92;nan;98436.69;4992953;28;20063;-63
2022/05/22 10:59:49;;;;;;;1.75;1.65;;;;;;;22.97;nan;98430.19;4995694;28;20038;-62
2022/05/22 11:02:23;;;;;;;2.13;1.70;;;;;;;22.89;nan;98436.94;4990200;28;20034;-63
2022/05/22 11:04:50;;;;;;;;;;;;;;;23.16;nan;98435.78;4988968;28;20037;-63
2022/05/22 11:07:43;;;;;;;2.72;2.10;;;;;;;23.55;nan;98442.47;4995224;28;20340;-63
2022/05/22 11:10:14;;;;;;;3.05;2.42;;;;;;;23.45;nan;98430.19;4988309;28;20143;-62
2022/05/22 11:12:39;;;;;;;2.20;1.75;;;;;;;23.56;nan;98420.59;4989414;28;20030;-64
2022/05/22 11:15:11;;;;;;;1.55;1.50;;;;;;;23.37;nan;98422.91;4989367;28;20037;-63
2022/05/22 11:17:37;;;;;;;2.30;1.80;;;;;;;22.84;nan;98418.97;4993117;28;20058;-62
2022/05/22 11:20:25;;;;;;;2.20;1.80;;;;;;;22.52;nan;98407.34;4988624;28;20192;-65
2022/05/22 11:23:15;;;;;;;2.83;1.80;;;;;;;22.40;nan;98406.44;4987204;28;20034;-64
2022/05/22 11:26:06;;;;;;;1.80;1.70;;;;;;;22.85;nan;98406.72;4993546;28;20062;-63
2022/05/22 11:28:31;;;;;;;3.00;2.00;;;;;;;22.56;nan;98409.63;4995093;28;20546;-63
2022/05/22 11:31:33;;;;;;;2.10;2.00;;;;;;;22.71;nan;98403.31;4989024;28;20034;-64
2022/05/22 11:34:22;;;;;;;2.05;1.80;;;;;;;22.78;nan;98390.66;4991396;28;20033;-63
2022/05/22 11:37:03;;;;;;;2.42;1.88;;;;;;;22.66;nan;98370.59;4995575;28;20066;-65
2022/05/22 11:39:46;;;;;;;1.70;1.50;;;;;;;22.69;nan;98396.53;4989350;28;20073;-64
2022/05/22 11:42:24;;;;;;;3.78;1.70;;;;;;;22.86;nan;98375.25;4989239;28;20042;-64
2022/05/22 11:45:09;;;;;;;1.90;1.50;;;;;;;23.13;nan;98391.50;4995827;28;20034;-64
2022/05/22 11:47:40;;;;;;;2.28;1.77;;;;;;;22.78;nan;98390.66;4993316;28;20068;-65
2022/05/22 11:50:22;;;;;;;2.28;2.08;;;;;;;22.74;nan;98376.94;4986792;28;20049;-65
2022/05/22 11:52:55;;;;;;;2.45;1.85;;;;;;;23.13;nan;98367.13;4993826;28;20098;-65
2022/05/22 11:55:21;;;;;;;3.78;2.75;;;;;;;;;;4998955;28;20042;-64
2022/05/22 11:58:31;;;;;;;2.47;2.10;;;;;;;22.93;nan;98354.69;4994327;28;20542;-64
2022/05/22 12:01:27;;;;;;;1.70;1.60;;;;;;;22.91;nan;98348.78;4950500;28;20046;-64
2022/05/22 12:04:34;;;;;;;1.90;1.77;;;;;;;22.92;nan;98351.25;4958412;28;20105;-67
2022/05/22 12:07:20;;;;;;;2.55;1.73;;;;;;;23.28;nan;98326.78;4946778;28;20055;-64
2022/05/22 12:10:06;;;;;;;2.90;2.30;;;;;;;23.40;nan;98340.69;4951493;28;20627;-64
2022/05/22 12:12:38;;;;;;;;;;;;;;;23.18;nan;98328.41;4957589;28;20045;-64
2022/05/22 12:15:34;;;;;;;2.70;1.92;;;;;;;23.15;nan;98336.47;4942500;28;20368;-64
2022/05/22 12:18:29;;;;;;;2.17;2.00;;;;;;;23.48;nan;98335.75;4949361;28;20054;-64
2022/05/22 12:21:05;;;;;;;1.90;1.80;;;;;;;23.74;nan;98307.56;4954231;28;20501;-64